createdAt,value
2023-02-18T00:01:18.827Z,11.92
2023-02-18T00:03:46.875Z,11.89
2023-02-18T00:06:15.936Z,11.90
2023-02-18T00:08:45.110Z,11.91
2023-02-18T00:11:13.845Z,11.89
2023-02-18T00:13:43.439Z,11.92
2023-02-18T00:16:13.087Z,11.90
2023-02-18T00:18:41.038Z,11.90
2023-02-18T00:21:09.641Z,11.91
2023-02-18T00:23:37.820Z,11.89
2023-02-18T00:26:08.644Z,11.91
2023-02-18T00:28:37.643Z,11.89
2023-02-18T00:31:11.644Z,11.91
2023-02-18T00:33:40.196Z,11.88
2023-02-18T00:36:10.362Z,11.89
2023-02-18T00:38:38.676Z,11.86
2023-02-18T00:41:07.103Z,11.88
2023-02-18T00:43:35.232Z,11.86
2023-02-18T00:46:03.394Z,11.86
2023-02-18T00:48:34.007Z,11.86
2023-02-18T00:51:02.503Z,11.85
2023-02-18T00:53:31.026Z,11.84
2023-02-18T00:56:00.601Z,11.82
2023-02-18T00:58:28.695Z,11.81
2023-02-18T01:00:57.567Z,11.80
2023-02-18T01:03:25.749Z,11.80
2023-02-18T01:05:55.259Z,11.81
2023-02-18T01:08:28.671Z,11.80
2023-02-18T01:10:59.658Z,11.80
2023-02-18T01:13:30.210Z,11.80
2023-02-18T01:15:58.309Z,11.79
2023-02-18T01:18:26.688Z,11.79
2023-02-18T01:20:56.014Z,11.80
2023-02-18T01:23:24.562Z,11.79
2023-02-18T01:25:52.736Z,11.78
2023-02-18T01:28:21.437Z,11.78
2023-02-18T01:30:51.320Z,11.78
2023-02-18T01:33:19.834Z,11.78
2023-02-18T01:35:48.285Z,11.79
2023-02-18T01:38:17.984Z,11.80
2023-02-18T01:40:48.791Z,11.79
2023-02-18T01:43:17.288Z,11.78
2023-02-18T01:45:58.828Z,11.80
2023-02-18T01:48:32.398Z,11.79
2023-02-18T01:51:05.463Z,11.79
2023-02-18T01:53:39.098Z,11.80
2023-02-18T01:56:12.538Z,11.79
2023-02-18T01:58:40.904Z,11.77
2023-02-18T02:01:12.415Z,11.79
2023-02-18T02:03:40.470Z,11.77
2023-02-18T02:06:15.795Z,11.78
2023-02-18T02:08:46.870Z,11.77
2023-02-18T02:11:25.740Z,11.78
2023-02-18T02:14:17.748Z,11.76
2023-02-18T02:16:51.691Z,11.74
2023-02-18T02:19:56.644Z,11.72
2023-02-18T02:22:59.046Z,11.73
2023-02-18T02:25:48.139Z,11.72
2023-02-18T02:28:52.310Z,11.67
2023-02-18T02:31:48.007Z,11.67
2023-02-18T02:34:40.467Z,11.67
2023-02-18T02:37:17.802Z,11.63
2023-02-18T02:39:58.797Z,11.65
2023-02-18T02:42:44.660Z,11.63
2023-02-18T02:45:25.121Z,11.61
2023-02-18T02:48:00.958Z,11.61
2023-02-18T02:50:38.805Z,11.59
2023-02-18T02:53:17.892Z,11.58
2023-02-18T02:55:46.382Z,11.56
2023-02-18T02:58:17.511Z,11.58
2023-02-18T03:00:59.865Z,11.58
2023-02-18T03:03:44.966Z,11.57
2023-02-18T03:06:50.123Z,11.51
2023-02-18T03:09:22.886Z,11.51
2023-02-18T03:12:01.432Z,11.54
2023-02-18T03:14:42.263Z,11.53
2023-02-18T03:17:17.366Z,11.52
2023-02-18T03:19:50.898Z,11.52
2023-02-18T03:22:26.786Z,11.52
2023-02-18T03:24:58.618Z,11.52
2023-02-18T03:27:29.951Z,11.51
2023-02-18T03:30:03.159Z,11.49
2023-02-18T03:32:35.275Z,11.49
2023-02-18T03:35:09.286Z,11.50
2023-02-18T03:37:41.393Z,11.52
2023-02-18T03:40:11.371Z,11.50
2023-02-18T03:42:39.289Z,11.50
2023-02-18T03:45:08.478Z,11.51
2023-02-18T03:47:36.712Z,11.50
2023-02-18T03:50:05.119Z,11.49
2023-02-18T03:52:33.062Z,11.51
2023-02-18T03:55:02.366Z,11.52
2023-02-18T03:57:31.491Z,11.49
2023-02-18T03:59:59.308Z,11.49
2023-02-18T04:02:27.166Z,11.50
2023-02-18T04:04:55.028Z,11.49
2023-02-18T04:07:23.039Z,11.49
2023-02-18T04:09:51.026Z,11.48
2023-02-18T04:12:20.131Z,11.49
2023-02-18T04:14:47.990Z,11.47
2023-02-18T04:17:15.785Z,11.45
2023-02-18T04:19:43.883Z,11.46
2023-02-18T04:22:11.685Z,11.46
2023-02-18T04:24:39.462Z,11.45
2023-02-18T04:27:07.265Z,11.45
2023-02-18T04:29:36.665Z,11.45
2023-02-18T04:32:04.699Z,11.44
2023-02-18T04:34:32.512Z,11.42
2023-02-18T04:37:00.325Z,11.40
2023-02-18T04:39:28.133Z,11.42
2023-02-18T04:41:55.878Z,11.38
2023-02-18T04:44:23.630Z,11.40
2023-02-18T04:46:52.728Z,11.41
2023-02-18T04:49:20.441Z,11.38
2023-02-18T04:51:48.534Z,11.38
2023-02-18T04:54:16.248Z,11.39
2023-02-18T04:56:44.037Z,11.37
2023-02-18T04:59:12.568Z,11.36
2023-02-18T05:01:40.309Z,11.35
2023-02-18T05:04:09.628Z,11.37
2023-02-18T05:06:39.455Z,11.34
2023-02-18T05:09:07.369Z,11.34
2023-02-18T05:11:35.060Z,11.33
2023-02-18T05:14:02.949Z,11.31
2023-02-18T05:16:31.513Z,11.31
2023-02-18T05:18:59.257Z,11.29
2023-02-18T05:21:28.354Z,11.30
2023-02-18T05:23:56.087Z,11.28
2023-02-18T05:26:23.905Z,11.28
2023-02-18T05:28:51.821Z,11.26
2023-02-18T05:31:19.618Z,11.24
2023-02-18T05:33:47.344Z,11.23
2023-02-18T05:36:15.182Z,11.22
2023-02-18T05:38:44.242Z,11.21
2023-02-18T05:41:11.959Z,11.19
2023-02-18T05:43:53.627Z,11.17
2023-02-18T05:46:21.475Z,11.15
2023-02-18T05:48:49.597Z,11.15
2023-02-18T05:51:17.528Z,11.13
2023-02-18T05:53:46.590Z,11.14
2023-02-18T05:56:14.418Z,11.11
2023-02-18T05:58:42.246Z,11.09
2023-02-18T06:01:10.056Z,11.08
2023-02-18T06:03:37.734Z,11.07
2023-02-18T06:06:06.502Z,11.06
2023-02-18T06:08:34.365Z,11.03
2023-02-18T06:11:03.790Z,11.04
2023-02-18T06:13:31.686Z,11.02
2023-02-18T06:15:59.522Z,11.01
2023-02-18T06:18:27.387Z,11.01
2023-02-18T06:20:55.640Z,10.99
2023-02-18T06:23:23.387Z,10.99
2023-02-18T06:25:51.367Z,11.00
2023-02-18T06:28:20.456Z,11.00
2023-02-18T06:30:48.281Z,10.98
2023-02-18T06:33:16.198Z,10.97
2023-02-18T06:35:44.180Z,10.97
2023-02-18T06:38:11.892Z,10.97
2023-02-18T06:40:39.631Z,10.97
2023-02-18T06:43:07.338Z,10.96
2023-02-18T06:45:36.517Z,10.98
2023-02-18T06:48:04.233Z,10.96
2023-02-18T06:50:31.968Z,10.96
2023-02-18T06:53:00.149Z,10.96
2023-02-18T06:55:27.926Z,10.96
2023-02-18T06:57:55.649Z,10.97
2023-02-18T07:00:23.787Z,10.95
2023-02-18T07:02:52.886Z,10.97
2023-02-18T07:05:20.792Z,10.96
2023-02-18T07:07:48.542Z,10.96
2023-02-18T07:10:16.421Z,10.96
2023-02-18T07:12:44.215Z,10.96
2023-02-18T07:15:12.599Z,10.98
2023-02-18T07:17:40.335Z,10.96
2023-02-18T07:20:10.618Z,10.99
2023-02-18T07:22:38.345Z,10.97
2023-02-18T07:25:06.582Z,10.97
2023-02-18T07:27:34.539Z,10.96
2023-02-18T07:30:02.311Z,10.96
2023-02-18T07:32:30.166Z,10.96
2023-02-18T07:34:57.947Z,10.96
2023-02-18T07:37:27.206Z,10.98
2023-02-18T07:39:54.932Z,10.96
2023-02-18T07:42:22.766Z,10.96
2023-02-18T07:44:51.028Z,10.96
2023-02-18T07:47:19.878Z,10.96
2023-02-18T07:49:47.733Z,10.97
2023-02-18T07:52:16.367Z,10.97
2023-02-18T07:54:45.495Z,10.98
2023-02-18T07:57:13.287Z,10.97
2023-02-18T07:59:41.295Z,10.97
2023-02-18T08:02:16.390Z,11.00
2023-02-18T08:04:44.272Z,10.98
2023-02-18T08:07:14.716Z,10.98
2023-02-18T08:09:42.647Z,10.96
2023-02-18T08:12:11.768Z,10.97
2023-02-18T08:14:40.273Z,10.96
2023-02-18T08:17:08.041Z,10.94
2023-02-18T08:19:35.845Z,10.95
2023-02-18T08:22:03.956Z,10.94
2023-02-18T08:24:31.821Z,10.93
2023-02-18T08:27:01.534Z,10.91
2023-02-18T08:29:31.223Z,10.91
2023-02-18T08:31:59.524Z,10.87
2023-02-18T08:34:43.067Z,10.87
2023-02-18T08:37:10.970Z,10.83
2023-02-18T08:39:40.139Z,10.83
2023-02-18T08:42:08.177Z,10.79
2023-02-18T08:44:36.011Z,10.77
2023-02-18T08:47:03.883Z,10.76
2023-02-18T08:49:53.902Z,10.74
2023-02-18T08:52:21.992Z,10.72
2023-02-18T08:54:49.904Z,10.71
2023-02-18T08:57:17.732Z,10.69
2023-02-18T08:59:45.824Z,10.70
2023-02-18T09:02:15.266Z,10.69
2023-02-18T09:04:43.103Z,10.67
2023-02-18T09:07:12.291Z,10.68
2023-02-18T09:09:40.068Z,10.68
2023-02-18T09:12:08.472Z,10.70
2023-02-18T09:14:36.278Z,10.70
2023-02-18T09:17:04.196Z,10.71
2023-02-18T09:19:32.024Z,10.72
2023-02-18T09:22:00.800Z,10.72
2023-02-18T09:24:30.216Z,10.74
2023-02-18T09:26:58.026Z,10.73
2023-02-18T09:29:25.877Z,10.73
2023-02-18T09:31:53.880Z,10.73
2023-02-18T09:34:21.969Z,10.73
2023-02-18T09:36:49.764Z,10.74
2023-02-18T09:39:18.109Z,10.74
2023-02-18T09:41:49.662Z,10.77
2023-02-18T09:44:22.397Z,10.77
2023-02-18T09:46:53.564Z,10.72
2023-02-18T09:49:26.210Z,10.75
2023-02-18T09:51:55.120Z,10.71
2023-02-18T09:54:23.456Z,10.73
2023-02-18T09:56:54.840Z,10.74
2023-02-18T09:59:25.952Z,10.73
2023-02-18T10:01:55.423Z,10.72
2023-02-18T10:04:30.068Z,10.73
2023-02-18T10:06:59.114Z,10.73
2023-02-18T10:09:31.016Z,10.74
2023-02-18T10:12:09.373Z,10.73
2023-02-18T10:14:37.593Z,10.72
2023-02-18T10:17:06.202Z,10.72
2023-02-18T10:19:37.548Z,10.74
2023-02-18T10:22:07.771Z,10.74
2023-02-18T10:24:39.442Z,10.74
2023-02-18T10:27:10.267Z,10.73
2023-02-18T10:29:38.095Z,10.72
2023-02-18T10:32:15.264Z,10.73
2023-02-18T10:34:47.051Z,10.72
2023-02-18T10:37:32.719Z,10.73
2023-02-18T10:40:09.962Z,10.73
2023-02-18T10:42:48.773Z,10.75
2023-02-18T10:45:26.051Z,10.74
2023-02-18T10:48:06.233Z,10.72
2023-02-18T10:50:38.837Z,10.71
2023-02-18T10:53:14.747Z,10.70
2023-02-18T10:55:44.940Z,10.69
2023-02-18T10:58:33.858Z,10.69
2023-02-18T11:01:05.497Z,10.68
2023-02-18T11:03:45.842Z,10.70
2023-02-18T11:06:21.702Z,10.69
2023-02-18T11:08:51.017Z,10.67
2023-02-18T11:11:24.202Z,10.68
2023-02-18T11:13:57.050Z,10.67
2023-02-18T11:16:25.205Z,10.40
2023-02-18T11:18:53.049Z,10.61
2023-02-18T11:21:31.135Z,10.67
2023-02-18T11:24:06.936Z,10.66
2023-02-18T11:26:37.291Z,10.67
2023-02-18T11:29:08.911Z,10.67
2023-02-18T11:31:45.288Z,10.66
2023-02-18T11:34:18.276Z,10.65
2023-02-18T11:36:46.162Z,10.37
2023-02-18T11:39:21.541Z,10.60
2023-02-18T11:41:55.901Z,10.58
2023-02-18T11:44:29.886Z,10.58
2023-02-18T11:47:00.856Z,10.57
2023-02-18T11:49:30.216Z,10.54
2023-02-18T11:52:07.516Z,10.55
2023-02-18T11:54:36.149Z,10.51
2023-02-18T11:57:06.670Z,10.54
2023-02-18T11:59:38.487Z,10.53
2023-02-18T12:02:25.429Z,10.55
2023-02-18T12:04:59.653Z,10.52
2023-02-18T12:07:32.612Z,10.53
2023-02-18T12:10:01.727Z,10.28
2023-02-18T12:12:32.173Z,10.49
2023-02-18T12:15:02.099Z,10.52
2023-02-18T12:17:51.897Z,10.55
2023-02-18T12:20:37.414Z,10.54
2023-02-18T12:23:12.955Z,10.53
2023-02-18T12:25:48.832Z,10.53
2023-02-18T12:28:35.533Z,10.54
2023-02-18T12:31:30.609Z,10.51
2023-02-18T12:34:18.984Z,10.54
2023-02-18T12:36:59.416Z,10.54
2023-02-18T12:39:41.572Z,10.55
2023-02-18T12:42:30.572Z,10.54
2023-02-18T12:45:14.289Z,10.57
2023-02-18T12:48:15.468Z,10.55
2023-02-18T12:50:56.634Z,10.57
2023-02-18T12:53:50.189Z,10.57
2023-02-18T12:56:41.809Z,10.57
2023-02-18T12:59:20.936Z,10.56
2023-02-18T13:02:00.958Z,10.58
2023-02-18T13:04:49.002Z,10.58
2023-02-18T13:07:30.901Z,10.57
2023-02-18T13:10:20.878Z,10.57
2023-02-18T13:12:58.768Z,10.58
2023-02-18T13:15:35.946Z,10.59
2023-02-18T13:18:09.998Z,10.58
2023-02-18T13:20:41.777Z,10.59
2023-02-18T13:23:17.510Z,10.60
2023-02-18T13:25:46.004Z,10.57
2023-02-18T13:28:21.986Z,10.61
2023-02-18T13:30:59.194Z,10.60
2023-02-18T13:33:36.845Z,10.63
2023-02-18T13:36:12.479Z,10.62
2023-02-18T13:38:57.723Z,10.62
2023-02-18T13:41:28.098Z,10.62
2023-02-18T13:43:55.960Z,10.60
2023-02-18T13:46:24.792Z,10.62
2023-02-18T13:48:55.010Z,10.63
2023-02-18T13:51:34.205Z,10.64
2023-02-18T13:54:06.323Z,10.63
2023-02-18T13:56:36.658Z,10.60
2023-02-18T13:59:10.383Z,10.64
2023-02-18T14:01:41.844Z,10.63
2023-02-18T14:04:48.568Z,10.62
2023-02-18T14:07:46.295Z,10.59
2023-02-18T14:10:34.149Z,10.60
2023-02-18T14:13:18.776Z,10.60
2023-02-18T14:15:56.336Z,10.63
2023-02-18T14:18:27.427Z,10.62
2023-02-18T14:21:06.573Z,10.64
2023-02-18T14:23:45.106Z,10.65
2023-02-18T14:26:25.120Z,10.65
2023-02-18T14:28:59.778Z,10.64
2023-02-18T14:31:37.244Z,10.66
2023-02-18T14:34:28.448Z,10.64
2023-02-18T14:37:11.833Z,10.65
2023-02-18T14:39:53.716Z,10.66
2023-02-18T14:42:30.487Z,10.67
2023-02-18T14:45:12.581Z,10.68
2023-02-18T14:47:55.845Z,10.66
2023-02-18T14:50:24.628Z,10.66
2023-02-18T14:52:57.996Z,10.69
2023-02-18T14:55:29.578Z,10.70
2023-02-18T14:58:02.453Z,10.71
2023-02-18T15:00:32.359Z,10.43
2023-02-18T15:03:02.998Z,10.67
2023-02-18T15:05:33.467Z,10.70
2023-02-18T15:08:02.964Z,10.71
2023-02-18T15:10:40.557Z,10.73
2023-02-18T15:13:14.321Z,10.71
2023-02-18T15:15:44.506Z,10.71
2023-02-18T15:18:21.741Z,10.74
2023-02-18T15:20:50.419Z,10.72
2023-02-18T15:23:18.888Z,10.73
2023-02-18T15:25:52.069Z,10.75
2023-02-18T15:28:23.598Z,10.75
2023-02-18T15:30:51.810Z,10.72
2023-02-18T15:33:23.577Z,10.73
2023-02-18T15:35:51.380Z,10.73
2023-02-18T15:38:21.212Z,10.74
2023-02-18T15:40:53.399Z,10.75
2023-02-18T15:43:23.379Z,10.71
2023-02-18T15:45:53.522Z,10.73
2023-02-18T15:48:33.138Z,10.73
2023-02-18T15:51:16.228Z,10.72
2023-02-18T15:53:48.998Z,10.71
2023-02-18T15:56:25.258Z,10.71
2023-02-18T15:59:08.356Z,10.71
2023-02-18T16:01:36.555Z,10.43
2023-02-18T16:04:07.373Z,10.67
2023-02-18T16:06:39.089Z,10.71
2023-02-18T16:09:16.928Z,10.72
2023-02-18T16:11:48.770Z,10.71
2023-02-18T16:14:27.603Z,10.70
2023-02-18T16:17:09.836Z,10.71
2023-02-18T16:20:02.895Z,10.70
2023-02-18T16:22:36.181Z,10.69
2023-02-18T16:25:14.977Z,10.72
2023-02-18T16:27:51.977Z,10.73
2023-02-18T16:30:23.069Z,10.72
2023-02-18T16:32:51.942Z,10.72
2023-02-18T16:35:20.559Z,10.72
2023-02-18T16:37:50.204Z,10.71
2023-02-18T16:40:30.597Z,10.74
2023-02-18T16:43:01.853Z,10.75
2023-02-18T16:45:35.829Z,10.76
2023-02-18T16:48:06.002Z,10.74
2023-02-18T16:50:35.283Z,10.77
2023-02-18T16:53:03.069Z,10.77
2023-02-18T16:55:32.030Z,10.79
2023-02-18T16:58:01.364Z,10.80
2023-02-18T17:00:29.238Z,10.79
2023-02-18T17:03:00.955Z,10.82
2023-02-18T17:05:30.590Z,10.81
2023-02-18T17:08:06.031Z,10.82
2023-02-18T17:10:36.000Z,10.80
2023-02-18T17:13:05.144Z,10.83
2023-02-18T17:15:35.857Z,10.82
2023-02-18T17:18:04.790Z,10.83
2023-02-18T17:20:33.992Z,10.83
2023-02-18T17:23:01.869Z,10.82
2023-02-18T17:25:34.311Z,10.84
2023-02-18T17:28:02.468Z,10.81
2023-02-18T17:30:33.498Z,10.84
2023-02-18T17:33:03.339Z,10.83
2023-02-18T17:35:31.929Z,10.83
2023-02-18T17:38:00.007Z,10.83
2023-02-18T17:40:29.315Z,10.83
2023-02-18T17:42:57.854Z,10.82
2023-02-18T17:45:29.808Z,10.85
2023-02-18T17:48:00.089Z,10.83
2023-02-18T17:50:29.823Z,10.84
2023-02-18T17:52:58.054Z,10.83
2023-02-18T17:55:28.035Z,10.85
2023-02-18T17:57:55.892Z,10.84
2023-02-18T18:00:25.859Z,10.84
2023-02-18T18:02:53.866Z,10.82
2023-02-18T18:05:25.882Z,10.83
2023-02-18T18:07:54.135Z,10.81
2023-02-18T18:10:25.323Z,10.83
2023-02-18T18:12:53.176Z,10.81
2023-02-18T18:15:27.448Z,10.83
2023-02-18T18:17:56.270Z,10.79
2023-02-18T18:20:27.599Z,10.79
2023-02-18T18:22:57.470Z,10.76
2023-02-18T18:25:27.411Z,10.73
2023-02-18T18:27:55.669Z,10.68
2023-02-18T18:30:25.879Z,10.68
2023-02-18T18:32:54.236Z,10.64
2023-02-18T18:35:27.065Z,10.65
2023-02-18T18:37:55.030Z,10.37
2023-02-18T18:40:25.373Z,10.59
2023-02-18T18:42:53.812Z,10.61
2023-02-18T18:45:24.357Z,10.62
2023-02-18T18:47:53.037Z,10.60
2023-02-18T18:50:22.033Z,10.60
2023-02-18T18:52:53.086Z,10.60
2023-02-18T18:55:25.309Z,10.59
2023-02-18T18:57:53.277Z,10.56
2023-02-18T19:00:23.062Z,10.58
2023-02-18T19:02:51.139Z,10.57
2023-02-18T19:05:25.557Z,10.59
2023-02-18T19:07:55.281Z,10.57
2023-02-18T19:10:23.926Z,10.55
2023-02-18T19:12:51.809Z,10.54
2023-02-18T19:15:22.358Z,10.55
2023-02-18T19:17:51.877Z,10.55
2023-02-18T19:20:22.807Z,10.55
2023-02-18T19:22:50.921Z,10.54
2023-02-18T19:25:21.015Z,10.55
2023-02-18T19:27:50.345Z,10.53
2023-02-18T19:30:22.741Z,10.54
2023-02-18T19:32:51.916Z,10.51
2023-02-18T19:35:20.053Z,10.52
2023-02-18T19:37:48.562Z,10.53
2023-02-18T19:40:21.376Z,10.54
2023-02-18T19:42:49.507Z,10.28
2023-02-18T19:45:18.839Z,10.50
2023-02-18T19:47:47.343Z,10.51
2023-02-18T19:50:17.039Z,10.54
2023-02-18T19:52:44.960Z,10.54
2023-02-18T19:55:12.850Z,10.54
2023-02-18T19:57:42.064Z,10.55
2023-02-18T20:00:12.656Z,10.55
2023-02-18T20:02:43.789Z,10.54
2023-02-18T20:05:13.705Z,10.56
2023-02-18T20:07:42.436Z,10.54
2023-02-18T20:10:13.230Z,10.57
2023-02-18T20:12:42.651Z,10.57
2023-02-18T20:15:10.604Z,10.57
2023-02-18T20:17:39.468Z,10.57
2023-02-18T20:20:07.958Z,10.57
2023-02-18T20:22:35.854Z,10.57
2023-02-18T20:25:03.950Z,10.56
2023-02-18T20:27:32.997Z,10.57
2023-02-18T20:30:02.221Z,10.58
2023-02-18T20:32:30.080Z,10.56
2023-02-18T20:34:57.973Z,10.57
2023-02-18T20:37:25.811Z,10.57
2023-02-18T20:39:53.932Z,10.58
2023-02-18T20:42:21.788Z,10.57
2023-02-18T20:44:51.528Z,10.57
2023-02-18T20:47:20.814Z,10.59
2023-02-18T20:49:48.588Z,10.58
2023-02-18T20:52:17.420Z,10.57
2023-02-18T20:54:45.348Z,10.57
2023-02-18T20:57:13.303Z,10.57
2023-02-18T20:59:41.239Z,10.56
2023-02-18T21:02:09.251Z,10.55
2023-02-18T21:04:38.436Z,10.58
2023-02-18T21:07:06.641Z,10.57
2023-02-18T21:09:34.517Z,10.57
2023-02-18T21:12:02.404Z,10.57
2023-02-18T21:14:30.197Z,10.56
2023-02-18T21:16:58.062Z,10.58
2023-02-18T21:19:26.061Z,10.58
2023-02-18T21:21:55.390Z,10.59
2023-02-18T21:24:23.288Z,10.58
2023-02-18T21:26:51.146Z,10.58
2023-02-18T21:29:18.995Z,10.57
2023-02-18T21:31:46.941Z,10.58
2023-02-18T21:34:16.436Z,10.59
2023-02-18T21:36:45.269Z,10.58
2023-02-18T21:39:14.409Z,10.59
2023-02-18T21:41:42.279Z,10.58
2023-02-18T21:44:10.987Z,10.59
2023-02-18T21:46:40.229Z,10.59
2023-02-18T21:49:09.601Z,10.59
2023-02-18T21:52:00.276Z,10.61
2023-02-18T21:54:31.137Z,10.59
2023-02-18T21:57:00.747Z,10.59
2023-02-18T21:59:29.884Z,10.58
2023-02-18T22:01:59.825Z,10.58
2023-02-18T22:04:28.127Z,10.58
2023-02-18T22:06:55.886Z,10.57
2023-02-18T22:09:23.925Z,10.56
2023-02-18T22:11:53.074Z,10.57
2023-02-18T22:14:20.985Z,10.55
2023-02-18T22:16:48.861Z,10.56
2023-02-18T22:19:16.767Z,10.57
2023-02-18T22:21:44.885Z,10.57
2023-02-18T22:24:14.722Z,10.58
2023-02-18T22:26:43.889Z,10.57
2023-02-18T22:29:14.655Z,10.58
2023-02-18T22:31:42.950Z,10.58
2023-02-18T22:34:11.293Z,10.57
2023-02-18T22:36:39.217Z,10.57
2023-02-18T22:39:08.473Z,10.57
2023-02-18T22:41:36.648Z,10.57
2023-02-18T22:44:06.343Z,10.58
2023-02-18T22:46:37.572Z,10.57
2023-02-18T22:49:07.321Z,10.56
2023-02-18T22:51:38.428Z,10.58
2023-02-18T22:54:07.576Z,10.57
2023-02-18T22:56:35.402Z,10.54
2023-02-18T22:59:03.360Z,10.54
2023-02-18T23:01:32.900Z,10.55
2023-02-18T23:04:06.917Z,10.57
2023-02-18T23:06:34.918Z,10.55
2023-02-18T23:09:03.052Z,10.54
2023-02-18T23:11:30.885Z,10.54
2023-02-18T23:14:16.128Z,10.52
2023-02-18T23:17:01.644Z,10.51
2023-02-18T23:19:32.122Z,10.52
2023-02-18T23:22:00.167Z,10.52
2023-02-18T23:24:28.139Z,10.50
2023-02-18T23:26:55.977Z,10.51
2023-02-18T23:29:23.901Z,10.51
2023-02-18T23:31:51.806Z,10.51
2023-02-18T23:34:19.598Z,10.52
2023-02-18T23:36:49.083Z,10.53
2023-02-18T23:39:19.401Z,10.53
2023-02-18T23:41:47.718Z,10.52
2023-02-18T23:44:17.372Z,10.53
2023-02-18T23:46:45.632Z,10.51
2023-02-18T23:49:15.953Z,10.54
2023-02-18T23:51:44.057Z,10.53
2023-02-18T23:54:13.285Z,10.53
2023-02-18T23:56:41.407Z,10.54
2023-02-18T23:59:09.291Z,10.53
